Time;durP1;ratioP1;P1;durP2;ratioP2;P2;SDS_P1;SDS_P2;PMS_P1;PMS_P2;Temp;Humidity;BMP_temperature;BMP_pressure;BME280_temperature;BME280_humidity;BME280_pressure;Samples;Min_cycle;Max_cycle;Signal;HPM_P1;HPM_P2
2021/01/24 00:02:15;;;;;;;26.63;22.15;;;;;;;;;;6260214;22;20169;-82
2021/01/24 00:04:41;;;;;;;24.13;20.50;;;;;;;;;;6287825;22;20142;-81
2021/01/24 00:07:08;;;;;;;24.77;20.88;;;;;;;;;;6286713;22;20299;-81
2021/01/24 00:09:37;;;;;;;22.65;19.67;;;;;;;;;;6285542;22;20142;-81
2021/01/24 00:12:03;;;;;;;32.65;24.00;;;;;;;;;;6260099;22;20189;-81
2021/01/24 00:14:29;;;;;;;37.95;28.33;;;;;;;;;;6285893;22;20565;-81
2021/01/24 00:16:55;;;;;;;27.08;21.70;;;;;;;;;;6284182;22;20153;-80
2021/01/24 00:19:21;;;;;;;27.73;21.70;;;;;;;;;;6264149;22;20164;-80
2021/01/24 00:21:48;;;;;;;26.50;23.20;;;;;;;;;;6289115;22;20168;-82
2021/01/24 00:24:14;;;;;;;21.83;18.73;;;;;;;;;;6282263;22;20145;-81
2021/01/24 00:26:40;;;;;;;24.98;20.27;;;;;;;;;;6282366;22;20173;-81
2021/01/24 00:29:06;;;;;;;28.13;21.80;;;;;;;;;;6285367;22;20509;-80
2021/01/24 00:31:35;;;;;;;26.23;21.60;;;;;;;;;;6282252;22;20546;-82
2021/01/24 00:34:02;;;;;;;25.63;21.33;;;;;;;;;;6283657;22;20152;-81
2021/01/24 00:36:28;;;;;;;24.15;19.80;;;;;;;;;;6256059;22;20156;-81
2021/01/24 00:38:54;;;;;;;26.00;19.63;;;;;;;;;;6230525;22;20614;-81
2021/01/24 00:41:20;;;;;;;25.77;19.67;;;;;;;;;;6282610;22;20148;-82
2021/01/24 00:43:47;;;;;;;21.67;16.45;;;;;;;;;;6255694;22;20542;-80
2021/01/24 00:46:13;;;;;;;22.35;19.20;;;;;;;;;;6256261;22;20173;-82
2021/01/24 00:48:39;;;;;;;24.58;18.95;;;;;;;;;;6283345;22;20152;-82
2021/01/24 00:51:06;;;;;;;21.92;17.05;;;;;;;;;;6283220;22;20220;-82
2021/01/24 00:53:34;;;;;;;21.85;18.60;;;;;;;;;;6256603;22;20639;-81
2021/01/24 00:56:00;;;;;;;23.40;20.13;;;;;;;;;;6257658;22;20671;-81
2021/01/24 00:58:27;;;;;;;21.48;18.23;;;;;;;;;;6257050;22;20194;-80
2021/01/24 01:00:53;;;;;;;22.20;19.25;;;;;;;;;;6259602;22;20163;-79
2021/01/24 01:03:19;;;;;;;21.58;18.55;;;;;;;;;;6288825;22;20169;-80
2021/01/24 01:05:46;;;;;;;19.83;17.73;;;;;;;;;;6261096;22;20173;-83
2021/01/24 01:08:12;;;;;;;19.85;17.77;;;;;;;;;;6255731;22;20137;-82
2021/01/24 01:10:38;;;;;;;25.83;16.70;;;;;;;;;;6229986;22;20158;-83
2021/01/24 01:13:05;;;;;;;21.92;16.88;;;;;;;;;;6255914;22;20169;-80
2021/01/24 01:15:34;;;;;;;22.10;16.63;;;;;;;;;;6283557;22;20196;-82
2021/01/24 01:18:00;;;;;;;20.20;15.98;;;;;;;;;;6285585;22;20486;-82
2021/01/24 01:20:27;;;;;;;22.77;17.50;;;;;;;;;;6258095;22;20149;-82
2021/01/24 01:22:53;;;;;;;20.63;18.52;;;;;;;;;;6283662;22;20164;-82
2021/01/24 01:25:19;;;;;;;25.85;19.35;;;;;;;;;;6257138;22;20195;-80
2021/01/24 01:27:46;;;;;;;24.88;19.33;;;;;;;;;;6288566;22;20217;-81
2021/01/24 01:30:12;;;;;;;21.95;18.50;;;;;;;;;;6283939;22;20140;-82
2021/01/24 01:32:38;;;;;;;28.10;17.42;;;;;;;;;;6262117;22;20177;-79
2021/01/24 01:35:04;;;;;;;20.50;16.73;;;;;;;;;;6284287;22;20165;-82
2021/01/24 01:37:31;;;;;;;20.67;17.65;;;;;;;;;;6285942;22;20176;-81
2021/01/24 01:39:57;;;;;;;35.35;19.40;;;;;;;;;;6288925;22;20179;-78
2021/01/24 01:42:23;;;;;;;23.40;18.25;;;;;;;;;;6283418;22;20165;-81
2021/01/24 01:44:49;;;;;;;26.52;18.80;;;;;;;;;;6280533;22;20149;-82
2021/01/24 01:47:20;;;;;;;24.27;19.15;;;;;;;;;;6284506;22;20565;-81
2021/01/24 01:49:47;;;;;;;20.65;18.13;;;;;;;;;;6285829;22;20130;-82
2021/01/24 01:52:16;;;;;;;21.77;18.50;;;;;;;;;;6285532;22;20191;-81
2021/01/24 01:54:44;;;;;;;23.13;18.75;;;;;;;;;;6283334;22;20220;-79
2021/01/24 01:57:10;;;;;;;20.25;16.85;;;;;;;;;;6282515;22;20149;-81
2021/01/24 01:59:36;;;;;;;19.25;17.25;;;;;;;;;;6287553;22;20145;-82
2021/01/24 02:02:08;;;;;;;21.55;19.23;;;;;;;;;;6259376;22;20177;-81
2021/01/24 02:04:37;;;;;;;22.17;17.08;;;;;;;;;;6287832;22;20148;-82
2021/01/24 02:07:10;;;;;;;20.42;18.38;;;;;;;;;;6289648;22;20169;-81
2021/01/24 02:09:44;;;;;;;19.38;16.77;;;;;;;;;;6286528;22;20133;-81
2021/01/24 02:12:29;;;;;;;22.80;17.60;;;;;;;;;;6287156;22;20220;-82
2021/01/24 02:15:06;;;;;;;29.05;18.67;;;;;;;;;;6287818;22;20146;-81
2021/01/24 02:17:34;;;;;;;22.00;17.17;;;;;;;;;;6288113;22;20137;-82
2021/01/24 02:20:07;;;;;;;21.25;15.32;;;;;;;;;;6287582;22;20164;-81
2021/01/24 02:22:34;;;;;;;20.77;17.25;;;;;;;;;;6284915;22;20197;-81
2021/01/24 02:25:09;;;;;;;20.17;16.13;;;;;;;;;;6287569;22;20145;-80
2021/01/24 02:27:54;;;;;;;21.65;17.13;;;;;;;;;;6283696;22;20175;-81
2021/01/24 02:30:25;;;;;;;21.02;16.73;;;;;;;;;;6284089;22;20142;-80
2021/01/24 02:32:57;;;;;;;20.92;15.30;;;;;;;;;;6283406;22;20180;-80
2021/01/24 02:35:28;;;;;;;21.90;17.73;;;;;;;;;;6257027;22;20179;-81
2021/01/24 02:37:55;;;;;;;22.60;16.90;;;;;;;;;;6286257;22;20583;-82
2021/01/24 02:40:22;;;;;;;21.77;16.42;;;;;;;;;;6233394;22;20156;-82
2021/01/24 02:42:50;;;;;;;21.58;18.40;;;;;;;;;;6258643;22;20161;-82
2021/01/24 02:45:17;;;;;;;20.48;18.27;;;;;;;;;;6257008;22;20156;-82
2021/01/24 02:47:43;;;;;;;21.17;18.35;;;;;;;;;;6285149;22;20157;-83
2021/01/24 02:50:12;;;;;;;18.30;16.05;;;;;;;;;;6283113;22;20172;-81
2021/01/24 02:52:39;;;;;;;21.10;17.63;;;;;;;;;;6257905;22;20173;-81
2021/01/24 02:55:06;;;;;;;23.17;18.67;;;;;;;;;;6259705;22;20471;-82
2021/01/24 02:57:32;;;;;;;21.65;16.83;;;;;;;;;;6263612;22;20571;-78
2021/01/24 02:59:58;;;;;;;20.95;16.35;;;;;;;;;;6292093;22;20504;-79
2021/01/24 03:02:24;;;;;;;21.50;17.88;;;;;;;;;;6256579;22;20169;-82
2021/01/24 03:04:50;;;;;;;21.65;15.85;;;;;;;;;;6283727;22;20166;-82
2021/01/24 03:07:17;;;;;;;20.80;17.73;;;;;;;;;;6230240;22;20172;-82
2021/01/24 03:09:43;;;;;;;19.38;17.20;;;;;;;;;;6255907;22;20232;-82
2021/01/24 03:12:10;;;;;;;23.83;17.08;;;;;;;;;;6282539;22;20161;-81
2021/01/24 03:14:38;;;;;;;22.20;17.55;;;;;;;;;;6283753;22;20146;-82
2021/01/24 03:17:12;;;;;;;19.35;15.25;;;;;;;;;;6282498;22;20170;-82
2021/01/24 03:19:38;;;;;;;17.27;14.50;;;;;;;;;;6256136;22;20138;-82
2021/01/24 03:22:05;;;;;;;18.90;14.95;;;;;;;;;;6283492;22;20165;-81
2021/01/24 03:24:32;;;;;;;20.33;16.05;;;;;;;;;;6255225;22;20179;-80
2021/01/24 03:26:58;;;;;;;21.77;17.85;;;;;;;;;;6288158;22;20165;-81
2021/01/24 03:29:24;;;;;;;21.25;15.77;;;;;;;;;;6282076;22;20141;-81
2021/01/24 03:31:50;;;;;;;20.27;14.45;;;;;;;;;;6283819;22;20166;-82
2021/01/24 03:34:20;;;;;;;18.23;16.33;;;;;;;;;;6260614;22;20160;-81
2021/01/24 03:36:51;;;;;;;23.65;18.38;;;;;;;;;;6295729;22;20152;-81
2021/01/24 03:39:17;;;;;;;22.05;17.58;;;;;;;;;;6297197;22;20141;-80
2021/01/24 03:41:43;;;;;;;24.30;17.27;;;;;;;;;;6269307;22;20145;-81
2021/01/24 03:44:10;;;;;;;18.88;16.88;;;;;;;;;;6262845;22;20220;-79
2021/01/24 03:46:36;;;;;;;20.15;15.73;;;;;;;;;;6289657;22;20191;-78
2021/01/24 03:49:03;;;;;;;28.02;21.65;;;;;;;;;;6263719;22;20172;-81
2021/01/24 03:51:29;;;;;;;20.10;15.98;;;;;;;;;;6267748;22;20152;-81
2021/01/24 03:53:55;;;;;;;20.52;17.25;;;;;;;;;;6294111;22;20145;-81
2021/01/24 03:56:22;;;;;;;19.77;16.15;;;;;;;;;;6298312;22;20150;-80
2021/01/24 03:58:48;;;;;;;20.42;18.20;;;;;;;;;;6270406;22;20160;-79
2021/01/24 04:01:15;;;;;;;22.52;16.35;;;;;;;;;;6269388;22;20184;-79
2021/01/24 04:03:41;;;;;;;23.73;17.67;;;;;;;;;;6292436;22;20503;-79
2021/01/24 04:06:07;;;;;;;18.75;15.00;;;;;;;;;;6292378;22;20177;-79
2021/01/24 04:08:36;;;;;;;18.73;15.80;;;;;;;;;;6297002;22;20145;-79
2021/01/24 04:11:02;;;;;;;25.48;16.67;;;;;;;;;;6259989;22;20150;-80
2021/01/24 04:13:28;;;;;;;17.20;13.45;;;;;;;;;;6287430;22;20521;-80
2021/01/24 04:15:55;;;;;;;22.55;14.98;;;;;;;;;;6233283;22;20149;-82
2021/01/24 04:18:21;;;;;;;18.08;15.25;;;;;;;;;;6261065;22;20145;-78
2021/01/24 04:20:47;;;;;;;18.40;16.13;;;;;;;;;;6287046;22;20209;-82
2021/01/24 04:23:13;;;;;;;16.23;13.43;;;;;;;;;;6285259;22;20188;-82
2021/01/24 04:25:40;;;;;;;21.77;16.13;;;;;;;;;;6284529;22;20700;-82
2021/01/24 04:28:09;;;;;;;19.15;15.13;;;;;;;;;;6256432;22;20223;-82
2021/01/24 04:30:35;;;;;;;16.77;13.35;;;;;;;;;;6256438;22;20194;-82
2021/01/24 04:33:01;;;;;;;15.77;14.02;;;;;;;;;;6283346;22;20169;-81
2021/01/24 04:35:28;;;;;;;17.00;13.98;;;;;;;;;;6236120;22;20150;-80
2021/01/24 04:37:54;;;;;;;14.00;12.48;;;;;;;;;;6261107;22;20505;-78
2021/01/24 04:40:20;;;;;;;14.75;12.75;;;;;;;;;;6260757;22;20149;-82
2021/01/24 04:42:50;;;;;;;18.60;13.68;;;;;;;;;;6283691;22;20157;-82
2021/01/24 04:45:18;;;;;;;18.35;15.30;;;;;;;;;;6283473;22;20173;-81
2021/01/24 04:47:46;;;;;;;14.90;13.40;;;;;;;;;;6259356;22;20192;-80
2021/01/24 04:50:12;;;;;;;17.05;14.02;;;;;;;;;;6288842;22;20134;-82
2021/01/24 04:52:38;;;;;;;18.38;13.85;;;;;;;;;;6284200;22;20216;-82
2021/01/24 04:55:05;;;;;;;16.90;13.73;;;;;;;;;;6282747;22;20141;-80
2021/01/24 04:57:31;;;;;;;19.95;15.52;;;;;;;;;;6253751;22;20149;-82
2021/01/24 04:59:58;;;;;;;17.27;13.45;;;;;;;;;;6281115;22;20483;-82
2021/01/24 05:02:24;;;;;;;18.33;14.93;;;;;;;;;;6253919;22;20161;-81
2021/01/24 05:04:50;;;;;;;18.67;13.68;;;;;;;;;;6283135;22;20464;-83
2021/01/24 05:07:16;;;;;;;17.73;14.68;;;;;;;;;;6230235;22;20298;-79
2021/01/24 05:09:46;;;;;;;19.98;13.68;;;;;;;;;;6235665;22;20146;-81
2021/01/24 05:12:12;;;;;;;19.75;15.55;;;;;;;;;;6282833;22;20165;-84
2021/01/24 05:14:39;;;;;;;20.23;15.02;;;;;;;;;;6283063;22;20176;-79
2021/01/24 05:17:05;;;;;;;21.00;16.35;;;;;;;;;;6261618;22;20148;-79
2021/01/24 05:19:49;;;;;;;15.85;13.18;;;;;;;;;;6295468;22;20464;-80
2021/01/24 05:22:16;;;;;;;22.38;16.92;;;;;;;;;;6265935;22;20192;-82
2021/01/24 05:24:42;;;;;;;18.30;15.80;;;;;;;;;;6259652;22;20145;-81
2021/01/24 05:27:10;;;;;;;22.45;16.05;;;;;;;;;;6255990;22;20176;-81
2021/01/24 05:29:43;;;;;;;25.60;18.17;;;;;;;;;;6265582;22;20125;-80
2021/01/24 05:32:10;;;;;;;16.60;14.25;;;;;;;;;;6261595;22;20165;-82
2021/01/24 05:34:44;;;;;;;19.98;14.93;;;;;;;;;;6254881;23;20581;-80
2021/01/24 05:37:10;;;;;;;23.15;15.68;;;;;;;;;;6229255;23;20123;-82
2021/01/24 05:39:37;;;;;;;22.30;15.52;;;;;;;;;;6229541;23;20157;-79
2021/01/24 05:42:03;;;;;;;20.60;16.40;;;;;;;;;;6253612;22;20145;-79
2021/01/24 05:44:29;;;;;;;18.92;14.90;;;;;;;;;;6255275;23;20537;-80
2021/01/24 05:47:03;;;;;;;20.63;15.52;;;;;;;;;;6253741;23;20194;-80
2021/01/24 05:49:31;;;;;;;17.30;13.90;;;;;;;;;;6255377;23;20137;-80
2021/01/24 05:52:07;;;;;;;18.13;14.48;;;;;;;;;;6253701;23;20200;-80
2021/01/24 05:54:44;;;;;;;19.52;15.40;;;;;;;;;;6255879;23;20145;-80
2021/01/24 05:57:15;;;;;;;19.05;14.88;;;;;;;;;;6254670;23;20153;-80
2021/01/24 05:59:54;;;;;;;23.70;14.20;;;;;;;;;;6254777;23;20183;-80
2021/01/24 06:02:21;;;;;;;22.73;16.00;;;;;;;;;;6252865;22;20224;-80
2021/01/24 06:04:50;;;;;;;20.50;17.95;;;;;;;;;;6253426;23;20146;-79
2021/01/24 06:07:17;;;;;;;23.83;15.40;;;;;;;;;;6252488;23;20174;-79
2021/01/24 06:09:44;;;;;;;15.65;13.52;;;;;;;;;;6252957;23;20604;-80
2021/01/24 06:12:11;;;;;;;20.33;14.63;;;;;;;;;;6253948;22;20150;-80
2021/01/24 06:14:38;;;;;;;17.70;12.93;;;;;;;;;;6255769;23;20176;-80
2021/01/24 06:17:08;;;;;;;18.15;14.52;;;;;;;;;;6256335;23;20279;-82
2021/01/24 06:19:42;;;;;;;14.30;12.38;;;;;;;;;;6254027;23;20565;-80
2021/01/24 06:22:12;;;;;;;16.73;13.18;;;;;;;;;;6256059;22;20149;-81
2021/01/24 06:24:44;;;;;;;19.35;13.60;;;;;;;;;;6256702;23;20666;-80
2021/01/24 06:27:11;;;;;;;19.33;13.13;;;;;;;;;;6252783;23;20185;-81
2021/01/24 06:29:41;;;;;;;19.50;15.75;;;;;;;;;;6251332;23;20184;-80
2021/01/24 06:32:07;;;;;;;18.65;13.00;;;;;;;;;;6223809;22;20155;-80
2021/01/24 06:34:37;;;;;;;13.70;11.70;;;;;;;;;;6251567;23;20146;-80
2021/01/24 06:37:11;;;;;;;14.85;10.88;;;;;;;;;;6272799;22;20157;-81
2021/01/24 06:39:48;;;;;;;15.70;11.85;;;;;;;;;;6273757;22;20531;-81
2021/01/24 06:42:34;;;;;;;18.05;12.50;;;;;;;;;;6273302;22;20164;-82
2021/01/24 06:45:29;;;;;;;16.30;12.30;;;;;;;;;;6230963;23;20138;-79
2021/01/24 06:48:02;;;;;;;18.27;12.93;;;;;;;;;;6230664;23;20161;-80
2021/01/24 06:50:42;;;;;;;16.33;11.85;;;;;;;;;;6230388;23;20146;-80
2021/01/24 06:53:09;;;;;;;16.88;10.88;;;;;;;;;;6254477;22;20162;-81
2021/01/24 06:55:37;;;;;;;14.52;11.00;;;;;;;;;;6253415;23;20146;-81
2021/01/24 06:58:22;;;;;;;16.33;14.60;;;;;;;;;;6228562;23;20146;-81
2021/01/24 07:00:48;;;;;;;14.45;11.35;;;;;;;;;;6253926;23;20138;-80
2021/01/24 07:03:16;;;;;;;18.17;14.32;;;;;;;;;;6255713;22;20534;-80
2021/01/24 07:05:42;;;;;;;17.65;12.93;;;;;;;;;;6230317;23;20228;-81
2021/01/24 07:08:28;;;;;;;19.70;13.63;;;;;;;;;;6254498;23;20198;-81
2021/01/24 07:10:54;;;;;;;15.10;11.75;;;;;;;;;;6230589;23;20168;-80
2021/01/24 07:13:26;;;;;;;15.20;12.57;;;;;;;;;;6234659;23;20166;-80
2021/01/24 07:16:03;;;;;;;21.23;16.73;;;;;;;;;;6265175;23;20643;-81
2021/01/24 07:18:42;;;;;;;22.58;16.63;;;;;;;;;;6257511;23;20481;-81
2021/01/24 07:21:09;;;;;;;23.70;15.05;;;;;;;;;;6229341;23;20199;-80
2021/01/24 07:23:35;;;;;;;18.63;15.85;;;;;;;;;;6229984;23;20192;-82
2021/01/24 07:26:02;;;;;;;19.02;15.27;;;;;;;;;;6255492;23;20178;-80
2021/01/24 07:28:29;;;;;;;22.08;16.15;;;;;;;;;;6257013;23;20263;-78
2021/01/24 07:30:59;;;;;;;25.40;18.05;;;;;;;;;;6233777;23;20146;-78
2021/01/24 07:33:25;;;;;;;18.35;14.27;;;;;;;;;;6260199;22;20225;-81
2021/01/24 07:35:51;;;;;;;22.45;17.33;;;;;;;;;;6254818;23;20130;-81
2021/01/24 07:38:17;;;;;;;21.35;16.73;;;;;;;;;;6254608;23;20154;-82
2021/01/24 07:40:44;;;;;;;22.75;16.45;;;;;;;;;;6256254;23;20142;-80
2021/01/24 07:43:13;;;;;;;23.58;15.60;;;;;;;;;;6255855;22;20257;-81
2021/01/24 07:45:39;;;;;;;19.45;15.27;;;;;;;;;;6228912;23;20150;-81
2021/01/24 07:48:06;;;;;;;21.40;15.80;;;;;;;;;;6256395;23;20146;-83
2021/01/24 07:50:32;;;;;;;28.38;17.83;;;;;;;;;;6230361;23;20220;-81
2021/01/24 07:52:58;;;;;;;24.60;18.63;;;;;;;;;;6255769;22;20241;-80
2021/01/24 07:55:27;;;;;;;19.00;17.08;;;;;;;;;;6229001;23;20153;-80
2021/01/24 07:57:54;;;;;;;25.58;22.23;;;;;;;;;;6258038;23;20564;-81
2021/01/24 08:00:34;;;;;;;23.42;18.75;;;;;;;;;;6256947;23;20148;-79
2021/01/24 08:03:00;;;;;;;26.98;21.90;;;;;;;;;;6257727;22;20166;-81
2021/01/24 08:05:29;;;;;;;294.60;229.02;;;;;;;;;;6260893;23;20187;-82
2021/01/24 08:08:05;;;;;;;26.27;23.45;;;;;;;;;;6260254;23;20145;-81
2021/01/24 08:10:32;;;;;;;20.98;17.95;;;;;;;;;;6236592;23;20168;-80
2021/01/24 08:12:58;;;;;;;21.80;17.60;;;;;;;;;;6268445;22;20169;-81
2021/01/24 08:15:24;;;;;;;15.65;13.52;;;;;;;;;;6244922;22;20216;-82
2021/01/24 08:17:51;;;;;;;18.88;14.18;;;;;;;;;;6271720;22;20138;-81
2021/01/24 08:20:18;;;;;;;18.65;13.68;;;;;;;;;;6273653;22;20149;-80
2021/01/24 08:22:45;;;;;;;18.75;14.55;;;;;;;;;;6245518;23;20162;-80
2021/01/24 08:25:11;;;;;;;18.90;16.42;;;;;;;;;;6268122;23;20138;-81
2021/01/24 08:27:37;;;;;;;23.10;15.38;;;;;;;;;;6262391;23;20177;-81
2021/01/24 08:30:04;;;;;;;16.92;14.52;;;;;;;;;;6235827;23;20146;-82
2021/01/24 08:32:31;;;;;;;15.30;12.63;;;;;;;;;;6230767;23;20174;-81
2021/01/24 08:34:57;;;;;;;14.82;12.75;;;;;;;;;;6255697;23;20186;-82
2021/01/24 08:37:24;;;;;;;16.85;11.05;;;;;;;;;;6230051;23;20540;-81
2021/01/24 08:39:53;;;;;;;15.95;12.27;;;;;;;;;;6254560;23;20245;-81
2021/01/24 08:42:19;;;;;;;15.60;12.13;;;;;;;;;;6254493;22;20178;-82
2021/01/24 08:45:01;;;;;;;13.70;10.95;;;;;;;;;;6254624;23;20153;-81
2021/01/24 08:47:28;;;;;;;12.77;10.68;;;;;;;;;;6255454;23;20188;-81
2021/01/24 08:50:05;;;;;;;11.05;9.65;;;;;;;;;;6267177;23;20210;-81
2021/01/24 08:59:18;;;;;;;13.32;11.00;;;;;;;;;;6171191;23;20144;-81
2021/01/24 09:02:14;;;;;;;10.93;8.40;;;;;;;;;;6115537;23;20173;-83
2021/01/24 09:04:55;;;;;;;11.90;7.70;;;;;;;;;;6111437;23;20149;-84
2021/01/24 09:10:30;;;;;;;7.72;6.93;;;;;;;;;;6255727;23;20543;-82
2021/01/24 09:12:57;;;;;;;9.00;7.40;;;;;;;;;;6256880;23;20138;-82
2021/01/24 09:15:24;;;;;;;14.85;8.90;;;;;;;;;;6257598;23;20149;-82
2021/01/24 09:17:54;;;;;;;13.45;9.23;;;;;;;;;;6257720;23;20460;-84
2021/01/24 09:20:20;;;;;;;13.18;8.95;;;;;;;;;;6227216;23;20147;-83
2021/01/24 09:22:47;;;;;;;10.60;8.98;;;;;;;;;;6200736;23;20147;-82
2021/01/24 09:25:13;;;;;;;11.55;8.43;;;;;;;;;;6201259;23;20182;-83
2021/01/24 09:27:40;;;;;;;9.60;7.70;;;;;;;;;;6202320;23;20174;-82
2021/01/24 09:30:07;;;;;;;14.00;8.95;;;;;;;;;;6177483;23;20181;-83
2021/01/24 09:32:33;;;;;;;10.02;8.63;;;;;;;;;;6205141;23;20480;-83
2021/01/24 09:34:59;;;;;;;9.43;8.32;;;;;;;;;;6177528;23;20525;-84
2021/01/24 09:37:26;;;;;;;11.73;9.73;;;;;;;;;;6228490;23;20148;-84
2021/01/24 09:39:52;;;;;;;14.02;8.77;;;;;;;;;;6200738;23;20186;-83
2021/01/24 09:42:18;;;;;;;13.18;12.02;;;;;;;;;;6227133;23;20142;-83
2021/01/24 09:44:44;;;;;;;19.70;14.05;;;;;;;;;;6228594;23;20150;-83
2021/01/24 09:47:11;;;;;;;14.80;13.30;;;;;;;;;;6229428;23;20225;-82
2021/01/24 09:49:37;;;;;;;16.45;14.77;;;;;;;;;;6203833;23;20170;-82
2021/01/24 09:52:03;;;;;;;19.40;15.57;;;;;;;;;;6228126;23;20138;-82
2021/01/24 09:54:29;;;;;;;17.58;15.98;;;;;;;;;;6228775;23;20139;-82
2021/01/24 09:56:55;;;;;;;16.90;15.15;;;;;;;;;;6231052;23;20139;-83
2021/01/24 09:59:21;;;;;;;23.45;15.13;;;;;;;;;;6229464;23;20177;-83
2021/01/24 10:01:48;;;;;;;15.75;13.45;;;;;;;;;;6232467;23;20147;-81
2021/01/24 10:04:14;;;;;;;15.50;12.98;;;;;;;;;;6204555;23;20147;-82
2021/01/24 10:06:40;;;;;;;17.25;13.43;;;;;;;;;;6206779;23;20170;-82
2021/01/24 10:09:07;;;;;;;12.70;10.88;;;;;;;;;;6237037;23;20174;-82
2021/01/24 10:11:33;;;;;;;14.20;12.95;;;;;;;;;;6212390;23;20174;-82
2021/01/24 10:14:00;;;;;;;16.23;13.77;;;;;;;;;;6238255;23;20142;-81
2021/01/24 10:16:28;;;;;;;14.85;13.32;;;;;;;;;;6236317;23;20147;-81
2021/01/24 10:18:54;;;;;;;13.07;11.38;;;;;;;;;;6237513;23;20163;-82
2021/01/24 10:21:20;;;;;;;13.65;12.25;;;;;;;;;;6238859;23;20170;-84
2021/01/24 10:23:46;;;;;;;19.20;14.32;;;;;;;;;;6238843;23;20146;-83
2021/01/24 10:26:14;;;;;;;20.10;16.80;;;;;;;;;;6239617;23;20197;-82
2021/01/24 10:28:40;;;;;;;22.33;14.93;;;;;;;;;;6239913;23;20162;-81
2021/01/24 10:31:07;;;;;;;16.65;13.35;;;;;;;;;;6238376;23;20142;-81
2021/01/24 10:33:33;;;;;;;13.10;11.43;;;;;;;;;;6211114;23;20143;-82
2021/01/24 10:35:59;;;;;;;18.15;14.63;;;;;;;;;;6210448;23;20194;-82
2021/01/24 10:38:26;;;;;;;13.25;12.00;;;;;;;;;;6235822;23;20166;-83
2021/01/24 10:40:52;;;;;;;14.13;10.80;;;;;;;;;;6184714;23;20150;-83
2021/01/24 10:43:18;;;;;;;15.32;12.45;;;;;;;;;;6234916;23;20221;-82
2021/01/24 10:45:45;;;;;;;12.32;11.10;;;;;;;;;;6234010;23;20154;-82
2021/01/24 10:48:11;;;;;;;16.20;14.00;;;;;;;;;;6232975;23;21441;-82
2021/01/24 10:50:38;;;;;;;15.20;13.82;;;;;;;;;;6231792;23;20145;-80
2021/01/24 10:53:04;;;;;;;16.20;13.70;;;;;;;;;;6226144;23;20532;-82
2021/01/24 10:55:31;;;;;;;15.50;12.90;;;;;;;;;;6199699;23;20304;-83
2021/01/24 10:57:57;;;;;;;15.68;13.93;;;;;;;;;;6225937;23;20222;-83
2021/01/24 11:00:24;;;;;;;16.77;13.63;;;;;;;;;;6226686;23;20139;-83
2021/01/24 11:02:50;;;;;;;18.23;14.82;;;;;;;;;;6201985;23;20154;-84
2021/01/24 11:05:16;;;;;;;14.40;11.68;;;;;;;;;;6204504;23;20178;-83
2021/01/24 11:07:43;;;;;;;13.18;11.93;;;;;;;;;;6205411;23;20182;-83
2021/01/24 11:10:10;;;;;;;14.88;13.43;;;;;;;;;;6230745;23;20170;-83
2021/01/24 11:12:36;;;;;;;14.15;11.95;;;;;;;;;;6203432;23;20201;-84
2021/01/24 11:15:03;;;;;;;16.20;14.13;;;;;;;;;;6203504;23;20147;-85
2021/01/24 11:17:30;;;;;;;10.52;9.23;;;;;;;;;;6205565;23;20215;-84
2021/01/24 11:19:57;;;;;;;11.60;9.43;;;;;;;;;;6229582;23;20263;-84
2021/01/24 11:22:23;;;;;;;14.55;10.85;;;;;;;;;;6200182;23;20523;-84
2021/01/24 11:24:49;;;;;;;12.05;10.68;;;;;;;;;;6200091;23;20159;-84
2021/01/24 11:27:16;;;;;;;14.00;11.80;;;;;;;;;;6200816;23;20558;-84
2021/01/24 11:29:43;;;;;;;12.00;10.15;;;;;;;;;;6227512;23;20159;-84
2021/01/24 11:32:09;;;;;;;13.65;9.68;;;;;;;;;;6225195;23;20140;-83
2021/01/24 11:34:36;;;;;;;9.75;8.95;;;;;;;;;;6224482;23;20150;-83
2021/01/24 11:37:02;;;;;;;10.93;8.23;;;;;;;;;;6226259;23;20174;-84
2021/01/24 11:39:28;;;;;;;15.35;10.73;;;;;;;;;;6228184;23;20162;-84
2021/01/24 11:41:54;;;;;;;10.52;8.88;;;;;;;;;;6226613;23;20142;-84
2021/01/24 11:44:21;;;;;;;10.43;9.38;;;;;;;;;;6172407;23;20154;-84
2021/01/24 11:46:47;;;;;;;20.25;14.15;;;;;;;;;;6222514;23;20170;-82
2021/01/24 11:49:13;;;;;;;10.60;9.10;;;;;;;;;;6224632;23;20186;-84
2021/01/24 11:51:39;;;;;;;10.13;9.07;;;;;;;;;;6199257;23;20153;-83
2021/01/24 11:54:05;;;;;;;10.50;9.60;;;;;;;;;;6198700;23;20176;-83
2021/01/24 11:56:32;;;;;;;11.55;7.18;;;;;;;;;;6175251;23;20160;-83
2021/01/24 11:58:58;;;;;;;8.40;6.93;;;;;;;;;;6226522;23;20500;-83
2021/01/24 12:01:24;;;;;;;8.65;7.85;;;;;;;;;;6229086;23;20139;-83
2021/01/24 12:03:50;;;;;;;9.57;8.57;;;;;;;;;;6229781;23;20143;-83
2021/01/24 12:06:16;;;;;;;14.60;11.80;;;;;;;;;;6231019;23;20166;-83
2021/01/24 12:08:43;;;;;;;11.27;10.07;;;;;;;;;;6229543;23;20617;-83
2021/01/24 12:11:09;;;;;;;11.52;10.48;;;;;;;;;;6230707;23;20166;-83
2021/01/24 12:13:35;;;;;;;13.73;9.63;;;;;;;;;;6203297;23;20135;-83
2021/01/24 12:16:01;;;;;;;11.18;10.02;;;;;;;;;;6200486;23;20221;-83
2021/01/24 12:18:28;;;;;;;13.43;11.57;;;;;;;;;;6226991;23;20597;-83
2021/01/24 12:20:54;;;;;;;17.45;13.65;;;;;;;;;;6229206;23;20146;-83
2021/01/24 12:23:22;;;;;;;20.92;14.23;;;;;;;;;;6229451;23;20142;-83
2021/01/24 12:25:49;;;;;;;14.25;12.63;;;;;;;;;;6201226;23;20138;-83
2021/01/24 12:28:15;;;;;;;15.70;12.85;;;;;;;;;;6200393;23;20171;-83
2021/01/24 12:30:41;;;;;;;14.45;13.02;;;;;;;;;;6200517;23;20158;-83
2021/01/24 12:33:11;;;;;;;12.43;11.20;;;;;;;;;;6203078;23;20146;-83
2021/01/24 12:35:38;;;;;;;11.80;10.30;;;;;;;;;;6230313;23;20138;-82
2021/01/24 12:38:04;;;;;;;10.80;9.70;;;;;;;;;;6203565;23;20146;-83
2021/01/24 12:40:30;;;;;;;10.40;9.43;;;;;;;;;;6205473;23;20146;-82
2021/01/24 12:42:56;;;;;;;11.70;9.88;;;;;;;;;;6236822;23;20147;-80
2021/01/24 12:45:22;;;;;;;10.95;9.43;;;;;;;;;;6237922;23;20135;-83
2021/01/24 12:47:49;;;;;;;11.27;9.63;;;;;;;;;;6237633;23;20185;-83
2021/01/24 12:50:16;;;;;;;10.27;8.65;;;;;;;;;;6210353;23;20193;-82
2021/01/24 12:52:48;;;;;;;9.38;8.25;;;;;;;;;;6210932;23;20158;-82
2021/01/24 12:55:15;;;;;;;10.57;9.55;;;;;;;;;;6237710;23;20149;-83
2021/01/24 12:57:41;;;;;;;8.70;7.90;;;;;;;;;;6238828;23;20142;-83
2021/01/24 13:00:09;;;;;;;11.43;10.18;;;;;;;;;;6212147;23;20210;-83
2021/01/24 13:02:35;;;;;;;13.65;10.27;;;;;;;;;;6189813;23;20165;-83
2021/01/24 13:05:02;;;;;;;10.75;8.88;;;;;;;;;;6237642;23;20142;-83
2021/01/24 13:07:28;;;;;;;11.90;10.65;;;;;;;;;;6209115;23;20170;-84
2021/01/24 13:09:54;;;;;;;10.68;9.52;;;;;;;;;;6211113;23;20178;-84
2021/01/24 13:12:20;;;;;;;13.88;12.40;;;;;;;;;;6210992;23;20146;-83
2021/01/24 13:14:46;;;;;;;15.65;10.68;;;;;;;;;;6206048;23;20138;-83
2021/01/24 13:17:13;;;;;;;30.63;23.65;;;;;;;;;;6202747;23;20176;-83
2021/01/24 13:19:39;;;;;;;20.77;18.08;;;;;;;;;;6228915;23;20163;-83
2021/01/24 13:22:05;;;;;;;19.33;14.77;;;;;;;;;;6229722;23;20154;-83
2021/01/24 13:24:32;;;;;;;12.32;11.10;;;;;;;;;;6229023;23;20152;-82
2021/01/24 13:26:59;;;;;;;18.20;16.20;;;;;;;;;;6227958;23;20162;-83
2021/01/24 13:29:25;;;;;;;15.48;13.70;;;;;;;;;;6230914;23;20158;-83
2021/01/24 13:31:51;;;;;;;16.27;13.05;;;;;;;;;;6228267;23;20234;-82
2021/01/24 13:34:17;;;;;;;20.85;17.23;;;;;;;;;;6227740;23;20128;-83
2021/01/24 13:36:43;;;;;;;15.48;12.75;;;;;;;;;;6227952;23;20162;-84
2021/01/24 13:39:12;;;;;;;15.27;13.30;;;;;;;;;;6228131;23;20163;-83
2021/01/24 13:41:38;;;;;;;15.05;13.18;;;;;;;;;;6201129;23;20135;-82
2021/01/24 13:44:05;;;;;;;15.30;13.40;;;;;;;;;;6225557;23;20154;-83
2021/01/24 13:46:31;;;;;;;15.80;12.80;;;;;;;;;;6205229;23;20170;-82
2021/01/24 13:48:57;;;;;;;18.33;16.38;;;;;;;;;;6199937;23;20222;-84
2021/01/24 13:51:23;;;;;;;16.02;13.85;;;;;;;;;;6180272;23;20147;-83
2021/01/24 13:53:50;;;;;;;18.52;12.85;;;;;;;;;;6231902;23;20143;-83
2021/01/24 13:56:19;;;;;;;18.15;14.20;;;;;;;;;;6230946;23;20146;-83
2021/01/24 13:58:53;;;;;;;19.30;12.85;;;;;;;;;;6182319;23;20190;-86
2021/01/24 14:01:19;;;;;;;18.90;15.70;;;;;;;;;;6225851;23;20131;-83
2021/01/24 14:03:45;;;;;;;15.75;12.60;;;;;;;;;;6226285;23;20201;-84
2021/01/24 14:06:12;;;;;;;16.35;14.63;;;;;;;;;;6226446;23;20223;-83
2021/01/24 14:08:38;;;;;;;17.75;15.02;;;;;;;;;;6225253;23;20167;-83
2021/01/24 14:11:04;;;;;;;15.07;13.52;;;;;;;;;;6226925;23;20135;-83
2021/01/24 14:13:30;;;;;;;17.15;13.57;;;;;;;;;;6226054;23;20520;-83
2021/01/24 14:15:56;;;;;;;17.55;14.73;;;;;;;;;;6225364;23;20494;-83
2021/01/24 14:18:22;;;;;;;17.05;14.00;;;;;;;;;;6224208;23;20174;-82
2021/01/24 14:20:49;;;;;;;18.48;16.20;;;;;;;;;;6226746;23;20150;-83
2021/01/24 14:23:15;;;;;;;16.58;13.45;;;;;;;;;;6176494;23;20146;-82
2021/01/24 14:25:41;;;;;;;19.48;15.90;;;;;;;;;;6178750;23;20173;-84
2021/01/24 14:28:07;;;;;;;20.20;17.15;;;;;;;;;;6203224;23;20166;-82
2021/01/24 14:30:34;;;;;;;22.98;19.80;;;;;;;;;;6227863;23;20197;-82
2021/01/24 14:33:00;;;;;;;16.42;12.60;;;;;;;;;;6203563;23;20173;-83